Time,TemperatureF,DewpointF,PressureIn,WindDirection,WindDirectionDegrees,WindSpeedMPH,WindSpeedGustMPH,Humidity,HourlyPrecipIn,Conditions,Clouds,dailyrainin,SoftwareType,DateUTC
2013-08-09 00:01:00,77.0,71.0,30.04,North,0,0.0,1.0,83,0.00,,,0.00,,2013-08-09 04:01:00,
2013-08-09 00:12:00,77.0,71.0,30.04,North,0,0.0,1.0,83,0.00,,,0.00,,2013-08-09 04:12:00,
2013-08-09 00:22:00,77.0,71.0,30.05,North,0,0.0,0.0,83,0.00,,,0.00,,2013-08-09 04:22:00,
2013-08-09 00:33:00,77.0,71.0,30.05,North,0,0.0,0.0,83,0.00,,,0.00,,2013-08-09 04:33:00,
2013-08-09 00:53:00,77.0,72.0,30.04,North,0,0.0,0.0,84,0.00,,,0.00,,2013-08-09 04:53:00,
2013-08-09 01:02:00,77.0,72.0,30.04,North,0,0.0,0.0,84,0.00,,,0.00,,2013-08-09 05:02:00,
2013-08-09 01:12:00,77.0,72.0,30.04,North,0,0.0,0.0,84,0.00,,,0.00,,2013-08-09 05:12:00,
2013-08-09 01:33:00,77.0,72.0,30.04,North,0,0.0,0.0,84,0.00,,,0.00,,2013-08-09 05:33:00,
2013-08-09 01:43:00,77.0,72.0,30.04,North,0,0.0,0.0,84,0.00,,,0.00,,2013-08-09 05:43:00,
2013-08-09 01:52:00,77.0,72.0,30.03,North,0,0.0,0.0,85,0.00,,,0.00,,2013-08-09 05:52:00,
2013-08-09 02:01:00,77.0,72.0,30.03,North,0,0.0,0.0,85,0.00,,,0.00,,2013-08-09 06:01:00,
2013-08-09 02:11:00,77.0,72.0,30.03,North,0,0.0,0.0,85,0.00,,,0.00,,2013-08-09 06:11:00,
2013-08-09 02:32:00,77.0,72.0,30.03,North,0,0.0,0.0,86,0.00,,,0.00,,2013-08-09 06:32:00,
2013-08-09 02:43:00,77.0,72.0,30.03,North,0,0.0,0.0,86,0.00,,,0.00,,2013-08-09 06:43:00,
2013-08-09 02:52:00,77.0,72.0,30.03,North,0,0.0,0.0,86,0.00,,,0.00,,2013-08-09 06:52:00,
2013-08-09 03:01:00,77.0,72.0,30.02,North,0,0.0,0.0,86,0.00,,,0.00,,2013-08-09 07:01:00,
2013-08-09 03:12:00,77.0,72.0,30.02,North,0,0.0,0.0,86,0.00,,,0.00,,2013-08-09 07:12:00,
2013-08-09 03:43:00,77.0,72.0,30.01,North,0,0.0,0.0,86,0.00,,,0.00,,2013-08-09 07:43:00,
2013-08-09 03:53:00,77.0,73.0,30.02,North,0,0.0,0.0,87,0.00,,,0.00,,2013-08-09 07:53:00,
2013-08-09 04:02:00,77.0,73.0,30.02,North,0,0.0,0.0,87,0.00,,,0.00,,2013-08-09 08:02:00,
2013-08-09 04:32:00,76.0,72.0,30.01,North,0,0.0,0.0,87,0.00,,,0.00,,2013-08-09 08:32:00,
2013-08-09 04:43:00,76.0,72.0,30.02,North,0,0.0,0.0,87,0.00,,,0.00,,2013-08-09 08:43:00,
2013-08-09 04:53:00,76.0,72.0,30.02,North,0,0.0,0.0,87,0.00,,,0.00,,2013-08-09 08:53:00,
2013-08-09 05:02:00,76.0,72.0,30.02,North,0,0.0,0.0,87,0.00,,,0.00,,2013-08-09 09:02:00,
2013-08-09 05:22:00,76.0,72.0,30.02,North,0,0.0,0.0,87,0.00,,,0.00,,2013-08-09 09:22:00,
2013-08-09 05:32:00,76.0,72.0,30.02,North,0,0.0,0.0,87,0.00,,,0.00,,2013-08-09 09:32:00,
2013-08-09 05:52:00,76.0,72.0,30.03,North,0,0.0,0.0,87,0.00,,,0.00,,2013-08-09 09:52:00,
2013-08-09 06:01:00,76.0,72.0,30.03,North,0,0.0,0.0,87,0.00,,,0.00,,2013-08-09 10:01:00,
2013-08-09 06:12:00,76.0,72.0,30.03,North,0,0.0,0.0,87,0.00,,,0.00,,2013-08-09 10:12:00,
2013-08-09 06:22:00,76.0,72.0,30.04,North,0,0.0,0.0,87,0.00,,,0.00,,2013-08-09 10:22:00,
2013-08-09 06:43:00,76.0,72.0,30.05,North,0,0.0,0.0,87,0.00,,,0.00,,2013-08-09 10:43:00,
2013-08-09 06:53:00,75.0,71.0,30.05,North,0,0.0,0.0,87,0.00,,,0.00,,2013-08-09 10:53:00,
2013-08-09 07:02:00,75.0,71.0,30.05,North,0,0.0,0.0,87,0.00,,,0.00,,2013-08-09 11:02:00,
2013-08-09 07:33:00,76.0,72.0,30.06,North,0,0.0,0.0,88,0.00,,,0.00,,2013-08-09 11:33:00,
2013-08-09 07:43:00,76.0,72.0,30.06,North,0,0.0,0.0,88,0.00,,,0.00,,2013-08-09 11:43:00,
2013-08-09 07:53:00,77.0,73.0,30.06,North,0,0.0,5.0,88,0.00,,,0.00,,2013-08-09 11:53:00,
2013-08-09 08:02:00,77.0,73.0,30.06,North,0,0.0,5.0,88,0.00,,,0.00,,2013-08-09 12:02:00,
2013-08-09 08:12:00,78.0,74.0,30.07,North,0,0.0,0.0,88,0.00,,,0.00,,2013-08-09 12:12:00,
2013-08-09 08:22:00,78.0,74.0,30.07,North,0,0.0,0.0,89,0.00,,,0.00,,2013-08-09 12:22:00,
2013-08-09 08:32:00,79.0,75.0,30.07,North,0,0.0,1.0,88,0.00,,,0.00,,2013-08-09 12:32:00,
2013-08-09 08:43:00,79.0,75.0,30.07,North,0,0.0,1.0,88,0.00,,,0.00,,2013-08-09 12:43:00,
2013-08-09 08:52:00,79.0,75.0,30.07,North,0,0.0,1.0,88,0.00,,,0.00,,2013-08-09 12:52:00,
2013-08-09 09:01:00,79.0,75.0,30.07,North,0,0.0,1.0,88,0.00,,,0.00,,2013-08-09 13:01:00,
2013-08-09 09:12:00,80.0,75.0,30.07,West,277,1.0,7.0,84,0.00,,,0.00,,2013-08-09 13:12:00,
2013-08-09 09:32:00,81.0,74.0,30.07,SSW,201,2.0,12.0,80,0.00,,,0.00,,2013-08-09 13:32:00,
2013-08-09 09:43:00,82.0,75.0,30.06,West,280,1.0,8.0,80,0.00,,,0.00,,2013-08-09 13:43:00,
2013-08-09 09:52:00,83.0,74.0,30.07,West,277,4.0,12.0,75,0.00,,,0.00,,2013-08-09 13:52:00,
2013-08-09 10:02:00,83.0,74.0,30.07,West,277,4.0,12.0,75,0.00,,,0.00,,2013-08-09 14:02:00,
2013-08-09 10:22:00,84.0,74.0,30.07,SW,235,1.0,5.0,72,0.00,,,0.00,,2013-08-09 14:22:00,
2013-08-09 10:33:00,84.0,74.0,30.07,SW,235,1.0,5.0,72,0.00,,,0.00,,2013-08-09 14:33:00,
2013-08-09 10:43:00,86.0,75.0,30.07,WNW,290,2.0,11.0,70,0.00,,,0.00,,2013-08-09 14:43:00,
2013-08-09 10:53:00,86.0,75.0,30.07,WNW,290,2.0,11.0,70,0.00,,,0.00,,2013-08-09 14:53:00,
2013-08-09 11:02:00,87.0,76.0,30.07,West,279,1.0,8.0,69,0.00,,,0.00,,2013-08-09 15:02:00,
2013-08-09 11:12:00,87.0,75.0,30.07,WSW,254,2.0,16.0,67,0.00,,,0.00,,2013-08-09 15:12:00,
2013-08-09 11:22:00,86.0,73.0,30.08,West,259,2.0,8.0,65,0.00,,,0.00,,2013-08-09 15:22:00,
2013-08-09 11:33:00,86.0,73.0,30.07,West,266,2.0,2.0,66,0.00,,,0.00,,2013-08-09 15:33:00,
2013-08-09 11:44:00,86.0,73.0,30.07,West,266,2.0,2.0,66,0.00,,,0.00,,2013-08-09 15:44:00,
2013-08-09 11:53:00,86.0,73.0,30.07,West,266,2.0,2.0,66,0.00,,,0.00,,2013-08-09 15:53:00,
2013-08-09 12:02:00,87.0,77.0,30.08,WSW,256,1.0,6.0,72,0.02,,,0.02,,2013-08-09 16:02:00,
2013-08-09 12:22:00,88.0,76.0,30.07,North,0,0.0,0.0,67,0.02,,,0.02,,2013-08-09 16:22:00,
2013-08-09 12:32:00,88.0,75.0,30.07,WSW,237,1.0,6.0,66,0.02,,,0.02,,2013-08-09 16:32:00,
2013-08-09 12:43:00,87.0,76.0,30.07,WSW,258,1.0,8.0,69,0.02,,,0.02,,2013-08-09 16:43:00,
2013-08-09 12:53:00,87.0,76.0,30.07,WSW,258,1.0,8.0,69,0.02,,,0.02,,2013-08-09 16:53:00,
2013-08-09 13:02:00,87.0,76.0,30.07,WSW,258,1.0,8.0,69,0.02,,,0.02,,2013-08-09 17:02:00,
2013-08-09 13:33:00,88.0,73.0,30.06,South,171,2.0,8.0,61,0.00,,,0.02,,2013-08-09 17:33:00,
2013-08-09 13:43:00,88.0,73.0,30.06,South,171,2.0,8.0,61,0.00,,,0.02,,2013-08-09 17:43:00,
2013-08-09 13:52:00,88.0,74.0,30.06,SSW,205,4.0,8.0,63,0.00,,,0.02,,2013-08-09 17:52:00,
2013-08-09 14:22:00,89.0,74.0,30.06,SW,228,2.0,7.0,62,0.00,,,0.02,,2013-08-09 18:22:00,
2013-08-09 14:32:00,90.0,75.0,30.06,SW,236,4.0,13.0,61,0.00,,,0.02,,2013-08-09 18:32:00,
2013-08-09 14:43:00,90.0,75.0,30.06,SW,236,4.0,13.0,61,0.00,,,0.02,,2013-08-09 18:43:00,
2013-08-09 14:53:00,90.0,74.0,30.05,West,272,2.0,8.0,59,0.00,,,0.02,,2013-08-09 18:53:00,
2013-08-09 15:02:00,90.0,73.0,30.05,West,268,4.0,13.0,58,0.00,,,0.02,,2013-08-09 19:02:00,
2013-08-09 15:11:00,90.0,73.0,30.05,West,268,4.0,13.0,58,0.00,,,0.02,,2013-08-09 19:11:00,
2013-08-09 15:22:00,90.0,73.0,30.05,West,268,4.0,13.0,58,0.00,,,0.02,,2013-08-09 19:22:00,
2013-08-09 17:33:00,91.0,73.0,30.01,SW,228,4.0,4.0,55,0.00,,,0.00,,2013-08-09 21:33:00,
2013-08-09 17:52:00,91.0,72.0,30.02,West,262,2.0,12.0,54,0.00,,,0.00,,2013-08-09 21:52:00,
2013-08-09 18:22:00,90.0,73.0,30.01,WSW,251,2.0,6.0,58,0.00,,,0.00,,2013-08-09 22:22:00,
2013-08-09 18:32:00,90.0,73.0,30.01,SW,231,1.0,7.0,58,0.00,,,0.00,,2013-08-09 22:32:00,
2013-08-09 18:42:00,90.0,73.0,30.01,SW,231,1.0,7.0,58,0.00,,,0.00,,2013-08-09 22:42:00,
2013-08-09 18:52:00,90.0,73.0,30.01,SW,231,1.0,7.0,58,0.00,,,0.00,,2013-08-09 22:52:00,
2013-08-09 19:22:00,88.0,73.0,30.02,SSE,160,1.0,6.0,61,0.00,,,0.00,,2013-08-09 23:22:00,
2013-08-09 19:43:00,86.0,71.0,30.02,WSW,258,1.0,5.0,62,0.00,,,0.00,,2013-08-09 23:43:00,
2013-08-09 19:52:00,86.0,71.0,30.02,WSW,258,1.0,5.0,62,0.00,,,0.00,,2013-08-09 23:52:00,
2013-08-09 20:01:00,86.0,71.0,30.02,WSW,258,1.0,5.0,62,0.00,,,0.00,,2013-08-10 00:01:00,
2013-08-09 20:22:00,84.0,71.0,30.03,North,0,1.0,0.0,66,0.00,,,0.00,,2013-08-10 00:22:00,
2013-08-09 20:33:00,84.0,71.0,30.03,North,0,1.0,0.0,66,0.00,,,0.00,,2013-08-10 00:33:00,
2013-08-09 20:43:00,84.0,71.0,30.03,North,0,1.0,0.0,66,0.00,,,0.00,,2013-08-10 00:43:00,
2013-08-09 20:52:00,84.0,71.0,30.03,North,0,1.0,0.0,66,0.00,,,0.00,,2013-08-10 00:52:00,
2013-08-09 21:02:00,82.0,71.0,30.04,North,0,0.0,1.0,70,0.00,,,0.00,,2013-08-10 01:02:00,
2013-08-09 21:11:00,82.0,71.0,30.04,North,0,0.0,1.0,70,0.00,,,0.00,,2013-08-10 01:11:00,
2013-08-09 21:22:00,82.0,72.0,30.04,North,0,0.0,2.0,71,0.00,,,0.00,,2013-08-10 01:22:00,
2013-08-09 21:32:00,82.0,72.0,30.04,North,0,0.0,2.0,71,0.00,,,0.00,,2013-08-10 01:32:00,
2013-08-09 21:42:00,82.0,72.0,30.04,North,0,0.0,2.0,71,0.00,,,0.00,,2013-08-10 01:42:00,
2013-08-09 21:52:00,82.0,72.0,30.04,North,0,0.0,2.0,71,0.00,,,0.00,,2013-08-10 01:52:00,
2013-08-09 22:03:00,81.0,73.0,30.05,North,0,0.0,5.0,76,0.00,,,0.00,,2013-08-10 02:03:00,
2013-08-09 22:11:00,81.0,73.0,30.05,North,0,0.0,5.0,76,0.00,,,0.00,,2013-08-10 02:11:00,
2013-08-09 22:21:00,81.0,73.0,30.05,North,0,0.0,5.0,76,0.00,,,0.00,,2013-08-10 02:21:00,
2013-08-09 22:32:00,81.0,73.0,30.05,North,0,0.0,5.0,76,0.00,,,0.00,,2013-08-10 02:32:00,
2013-08-09 22:42:00,81.0,73.0,30.05,North,0,0.0,5.0,76,0.00,,,0.00,,2013-08-10 02:42:00,
2013-08-09 23:01:00,80.0,73.0,30.06,North,0,0.0,1.0,79,0.00,,,0.00,,2013-08-10 03:01:00,
2013-08-09 23:11:00,80.0,73.0,30.06,North,0,0.0,1.0,79,0.00,,,0.00,,2013-08-10 03:11:00,
2013-08-09 23:22:00,80.0,73.0,30.06,North,0,0.0,2.0,79,0.00,,,0.00,,2013-08-10 03:22:00,
2013-08-09 23:32:00,80.0,73.0,30.06,North,0,0.0,2.0,79,0.00,,,0.00,,2013-08-10 03:32:00,
2013-08-09 23:42:00,80.0,73.0,30.06,North,0,0.0,2.0,79,0.00,,,0.00,,2013-08-10 03:42:00,
2013-08-09 23:52:00,80.0,74.0,30.06,WSW,244,1.0,5.0,81,0.00,,,0.00,,2013-08-10 03:52:00,